Time;durP1;ratioP1;P1;durP2;ratioP2;P2;SDS_P1;SDS_P2;PMS_P1;PMS_P2;Temp;Humidity;BMP_temperature;BMP_pressure;BME280_temperature;BME280_humidity;BME280_pressure;Samples;Min_cycle;Max_cycle;Signal;HPM_P1;HPM_P2
2022/02/04 00:24:13;;;;;;;15.18;12.05;;;10.70;78.70;;;;;;5014875;28;20088;-86
2022/02/04 00:26:49;;;;;;;14.50;11.93;;;10.70;78.70;;;;;;4989700;28;20034;-86
2022/02/04 00:29:22;;;;;;;14.32;11.80;;;10.80;78.80;;;;;;4977062;28;20034;-86
2022/02/04 00:31:53;;;;;;;14.82;11.15;;;10.70;78.70;;;;;;4988850;28;20033;-87
2022/02/04 00:34:22;;;;;;;15.07;11.85;;;10.80;78.80;;;;;;4998120;28;20026;-87
2022/02/04 00:39:26;;;;;;;14.63;11.43;;;10.80;78.80;;;;;;5007329;28;20029;-85
2022/02/04 00:41:53;;;;;;;15.07;11.68;;;10.80;78.70;;;;;;4973521;28;20026;-86
2022/02/04 00:44:25;;;;;;;15.50;12.32;;;10.70;78.60;;;;;;4985397;28;20018;-86
2022/02/04 00:46:59;;;;;;;14.65;11.30;;;10.80;78.70;;;;;;4998270;28;20052;-85
2022/02/04 00:52:07;;;;;;;15.02;12.10;;;10.80;78.70;;;;;;4995611;28;20077;-88
2022/02/04 00:54:51;;;;;;;14.70;11.45;;;10.80;78.70;;;;;;5004546;28;20034;-86
2022/02/04 01:25:54;;;;;;;14.20;10.57;;;10.70;78.60;;;;;;5003090;28;20041;-86
2022/02/04 01:27:14;;;;;;;13.90;10.98;;;10.70;78.80;;;;;;5006479;28;20038;-86
2022/02/04 01:29:55;;;;;;;13.52;10.63;;;10.70;78.80;;;;;;4991781;28;20068;-87
2022/02/04 01:32:21;;;;;;;14.73;11.88;;;10.70;78.80;;;;;;4995884;28;20087;-87
2022/02/04 01:34:46;;;;;;;13.63;10.45;;;10.70;78.80;;;;;;4977175;28;20440;-86
2022/02/04 01:37:12;;;;;;;14.63;11.73;;;10.70;78.80;;;;;;5001860;28;20030;-86
2022/02/04 01:39:38;;;;;;;15.20;11.85;;;10.70;78.80;;;;;;5004280;28;20394;-86
2022/02/04 01:42:04;;;;;;;13.93;11.27;;;10.70;78.80;;;;;;4994459;28;20068;-86
2022/02/04 01:44:30;;;;;;;14.43;10.93;;;10.70;78.80;;;;;;4994952;28;20037;-86
2022/02/04 01:46:56;;;;;;;14.85;12.18;;;10.70;78.70;;;;;;4996572;28;20034;-86
2022/02/04 01:49:24;;;;;;;14.20;10.80;;;10.70;78.70;;;;;;5005821;28;20052;-87
2022/02/04 01:51:50;;;;;;;14.57;10.95;;;10.80;78.80;;;;;;4974455;28;20040;-86
2022/02/04 01:54:16;;;;;;;12.68;10.30;;;10.80;78.80;;;;;;4988270;28;20022;-85
2022/02/04 01:56:44;;;;;;;13.20;10.68;;;10.80;78.80;;;;;;4998667;28;20067;-90
2022/02/04 01:59:11;;;;;;;14.85;11.45;;;10.80;78.80;;;;;;4989908;28;20467;-86
2022/02/04 02:01:37;;;;;;;13.48;11.07;;;10.80;78.80;;;;;;4990274;28;20046;-86
2022/02/04 02:04:06;;;;;;;14.32;10.88;;;10.70;78.70;;;;;;4991224;28;20466;-86
2022/02/04 02:06:46;;;;;;;13.80;10.88;;;10.80;78.80;;;;;;4997678;28;20081;-85
2022/02/04 02:09:13;;;;;;;15.80;11.30;;;10.70;78.80;;;;;;4998889;28;20477;-86
2022/02/04 02:11:39;;;;;;;15.80;12.00;;;10.80;78.70;;;;;;4994074;28;20037;-86
2022/02/04 02:14:09;;;;;;;13.75;11.10;;;10.70;78.70;;;;;;4973899;28;20045;-87
2022/02/04 02:35:51;;;;;;;12.38;9.82;;;10.70;78.80;;;;;;4995470;28;20120;-86
2022/02/04 02:42:05;;;;;;;12.30;9.95;;;10.70;78.80;;;;;;4971213;28;20214;-87
2022/02/04 02:57:45;;;;;;;12.05;8.60;;;10.70;78.70;;;;;;5024785;28;19909;-84
2022/02/04 03:00:14;;;;;;;11.00;8.55;;;10.70;78.70;;;;;;5020669;28;20490;-86
2022/02/04 03:02:42;;;;;;;11.02;8.63;;;10.70;78.80;;;;;;4999949;28;20030;-85
2022/02/04 03:05:09;;;;;;;12.35;9.38;;;10.70;78.90;;;;;;5009426;28;20022;-86
2022/02/04 03:07:35;;;;;;;11.95;9.25;;;10.70;78.90;;;;;;5014670;28;20070;-86
2022/02/04 03:10:01;;;;;;;12.45;8.80;;;10.70;78.90;;;;;;4997923;28;20132;-85
2022/02/04 03:12:31;;;;;;;11.57;9.38;;;10.70;78.90;;;;;;5024487;28;20025;-85
2022/02/04 03:14:59;;;;;;;11.32;8.63;;;10.70;78.90;;;;;;5042199;28;20046;-88
2022/02/04 03:17:25;;;;;;;11.30;8.73;;;10.70;78.90;;;;;;5023593;28;20052;-85
2022/02/04 03:19:56;;;;;;;12.60;9.50;;;10.70;78.90;;;;;;4989689;28;20041;-86
2022/02/04 03:22:23;;;;;;;11.13;9.05;;;10.70;78.80;;;;;;5017570;28;20030;-86
2022/02/04 03:24:58;;;;;;;11.52;8.73;;;10.70;78.80;;;;;;5013352;28;20482;-86
2022/02/04 03:27:33;;;;;;;12.75;8.63;;;10.70;78.80;;;;;;5006044;28;20149;-86
2022/02/04 03:30:09;;;;;;;11.15;8.75;;;10.70;78.80;;;;;;5016716;28;20038;-86
2022/02/04 03:32:40;;;;;;;10.07;8.15;;;10.70;78.70;;;;;;5009264;28;20471;-86
2022/02/04 03:35:06;;;;;;;10.40;8.15;;;10.70;78.70;;;;;;5016547;28;20552;-87
2022/02/04 03:37:34;;;;;;;11.32;8.52;;;10.70;78.80;;;;;;5016745;28;20025;-89
2022/02/04 03:40:01;;;;;;;11.45;8.52;;;10.70;78.80;;;;;;4998748;28;20132;-86
2022/02/04 03:42:27;;;;;;;9.93;7.82;;;10.70;78.80;;;;;;5025178;28;20039;-85
2022/02/04 03:44:53;;;;;;;11.50;8.55;;;10.70;78.80;;;;;;5019214;28;20104;-85
2022/02/04 03:47:20;;;;;;;10.85;8.23;;;10.70;78.80;;;;;;5027722;28;20034;-86
2022/02/04 03:49:47;;;;;;;10.75;7.88;;;10.70;78.80;;;;;;5014857;28;20037;-86
2022/02/04 03:52:13;;;;;;;11.07;8.15;;;10.70;79.40;;;;;;5009863;28;20045;-86
2022/02/04 03:54:38;;;;;;;10.80;8.27;;;10.70;78.70;;;;;;5004791;28;20025;-87
2022/02/04 03:57:07;;;;;;;10.60;7.97;;;10.70;78.80;;;;;;5014297;28;20037;-85
2022/02/04 03:59:33;;;;;;;10.20;8.13;;;10.70;78.70;;;;;;5015503;28;20099;-86
2022/02/04 04:01:59;;;;;;;9.82;7.47;;;10.70;78.70;;;;;;5000174;28;20014;-86
2022/02/04 04:04:30;;;;;;;10.70;7.47;;;10.70;78.70;;;;;;5018244;28;20025;-87
2022/02/04 04:06:58;;;;;;;9.00;7.07;;;10.70;78.80;;;;;;4997678;28;20037;-86
2022/02/04 04:09:26;;;;;;;9.20;7.13;;;10.70;78.70;;;;;;5013285;28;20021;-85
2022/02/04 04:11:53;;;;;;;10.27;7.18;;;10.70;78.70;;;;;;5010906;28;20033;-85
2022/02/04 04:14:19;;;;;;;10.30;7.65;;;10.70;78.70;;;;;;5002773;28;20053;-88
2022/02/04 04:16:47;;;;;;;8.68;6.70;;;10.70;78.70;;;;;;4983568;28;20370;-86
2022/02/04 04:19:13;;;;;;;8.18;6.78;;;10.70;78.70;;;;;;5013765;28;20036;-86
2022/02/04 04:21:39;;;;;;;8.90;7.00;;;10.70;78.70;;;;;;5005022;28;20064;-87
2022/02/04 04:24:11;;;;;;;9.55;6.95;;;10.70;78.70;;;;;;5011457;28;20037;-86
2022/02/04 04:26:38;;;;;;;8.18;6.25;;;10.70;78.70;;;;;;5018618;28;20797;-86
2022/02/04 04:29:04;;;;;;;8.27;6.53;;;10.70;78.70;;;;;;5006153;28;20072;-86
2022/02/04 04:31:30;;;;;;;9.73;6.90;;;10.70;78.70;;;;;;5007852;28;20093;-85
2022/02/04 04:33:57;;;;;;;9.65;6.88;;;10.70;78.70;;;;;;4995022;28;20558;-86
2022/02/04 04:36:23;;;;;;;9.15;6.80;;;10.70;78.70;;;;;;5010401;28;20042;-86
2022/02/04 05:30:31;;;;;;;6.55;4.68;;;10.70;78.90;;;;;;4991348;28;20041;-83
2022/02/04 05:32:57;;;;;;;7.35;5.30;;;10.70;78.90;;;;;;5010937;28;20120;-84
2022/02/04 05:35:23;;;;;;;7.35;5.05;;;10.60;78.90;;;;;;5013662;28;20066;-86
2022/02/04 05:37:51;;;;;;;7.38;5.25;;;10.60;78.80;;;;;;4998921;28;20033;-83
2022/02/04 05:40:20;;;;;;;7.35;5.03;;;10.70;78.90;;;;;;4997032;28;20088;-85
2022/02/04 05:43:00;;;;;;;6.70;4.93;;;10.70;78.90;;;;;;5031039;28;20034;-81
2022/02/04 05:45:31;;;;;;;7.10;5.28;;;10.70;78.90;;;;;;4998871;28;20050;-82
2022/02/04 05:48:01;;;;;;;7.95;5.22;;;10.70;78.90;;;;;;5026807;28;20069;-83
2022/02/04 05:50:39;;;;;;;7.00;4.88;;;10.70;78.80;;;;;;4998571;28;20030;-84
2022/02/04 05:55:51;;;;;;;6.35;4.78;;;10.70;78.80;;;;;;5007205;28;20034;-83
2022/02/04 05:58:31;;;;;;;7.30;5.13;;;10.70;78.80;;;;;;5020522;28;20037;-86
2022/02/04 06:24:04;;;;;;;5.50;4.32;;;10.70;78.80;;;;;;5021621;28;20406;-83
2022/02/04 06:26:31;;;;;;;6.38;4.28;;;10.70;78.80;;;;;;5024614;28;20033;-83
2022/02/04 06:28:57;;;;;;;5.45;3.95;;;10.70;79.50;;;;;;5008560;28;20685;-82
2022/02/04 06:31:23;;;;;;;6.03;4.35;;;10.70;78.90;;;;;;5013054;28;20482;-82
2022/02/04 06:33:50;;;;;;;5.53;4.10;;;10.70;78.90;;;;;;5009155;28;20466;-81
2022/02/04 06:36:16;;;;;;;5.50;4.07;;;10.70;78.90;;;;;;5017514;28;20048;-85
2022/02/04 06:38:41;;;;;;;5.65;3.97;;;10.70;78.80;;;;;;5012322;28;20053;-84
2022/02/04 06:41:07;;;;;;;5.80;4.15;;;10.70;78.80;;;;;;5021184;28;20022;-82
2022/02/04 06:43:35;;;;;;;5.93;3.97;;;10.70;78.80;;;;;;5021412;28;20515;-84
2022/02/04 06:46:01;;;;;;;5.20;3.70;;;10.70;78.80;;;;;;5012915;28;20030;-82
2022/02/04 06:48:27;;;;;;;5.68;4.25;;;10.70;78.80;;;;;;5011711;28;20025;-83
2022/02/04 06:50:53;;;;;;;5.53;3.75;;;10.70;78.80;;;;;;5022649;28;20437;-79
2022/02/04 06:53:19;;;;;;;5.90;3.83;;;10.70;78.80;;;;;;5006438;28;20025;-82
2022/02/04 06:55:45;;;;;;;6.15;3.85;;;10.70;79.50;;;;;;5020812;28;20026;-83
2022/02/04 06:58:12;;;;;;;6.70;4.32;;;10.70;78.80;;;;;;5009980;28;20030;-81
2022/02/04 07:00:39;;;;;;;5.30;3.33;;;10.70;78.80;;;;;;4992420;28;20065;-84
2022/02/04 07:03:08;;;;;;;5.22;3.47;;;10.70;78.80;;;;;;5005310;28;20099;-83
2022/02/04 07:05:41;;;;;;;5.10;3.53;;;10.70;78.80;;;;;;4996478;28;20518;-84
2022/02/04 07:08:23;;;;;;;5.18;3.80;;;10.70;78.80;;;;;;5004715;28;20032;-82
2022/02/04 07:11:14;;;;;;;5.28;3.75;;;10.70;78.80;;;;;;5020888;28;20029;-82
2022/02/04 07:14:05;;;;;;;5.15;3.90;;;10.70;78.70;;;;;;5004191;28;20547;-83
2022/02/04 07:16:39;;;;;;;5.45;3.20;;;10.70;78.80;;;;;;5002923;28;20553;-84
2022/02/04 07:21:49;;;;;;;5.30;3.65;;;10.70;78.80;;;;;;4976981;28;20475;-82
2022/02/04 07:24:14;;;;;;;4.05;2.97;;;10.70;78.80;;;;;;4996130;28;20022;-82
2022/02/04 07:26:40;;;;;;;5.15;3.45;;;10.70;78.80;;;;;;5006912;28;20542;-83
2022/02/04 07:29:06;;;;;;;4.53;3.40;;;10.70;78.80;;;;;;4990462;28;20017;-82
2022/02/04 07:31:36;;;;;;;4.60;3.20;;;10.70;78.80;;;;;;4973093;28;20057;-81
2022/02/04 07:42:22;;;;;;;5.22;3.50;;;10.70;78.80;;;;;;5011031;28;20167;-85
2022/02/04 07:44:48;;;;;;;4.85;3.20;;;10.70;78.80;;;;;;5005571;28;20403;-83
2022/02/04 07:47:14;;;;;;;4.97;3.53;;;10.70;78.80;;;;;;4989959;28;20044;-87
2022/02/04 07:49:40;;;;;;;4.50;3.40;;;10.70;78.80;;;;;;5011803;28;20072;-81
2022/02/04 07:52:05;;;;;;;4.85;3.50;;;10.70;78.80;;;;;;4990962;28;20036;-81
2022/02/04 07:54:31;;;;;;;4.40;3.13;;;10.70;78.80;;;;;;4974072;28;20018;-81
2022/02/04 07:57:02;;;;;;;4.88;3.42;;;10.70;78.70;;;;;;5004909;28;20030;-81
2022/02/04 07:59:27;;;;;;;4.40;2.97;;;10.70;78.70;;;;;;4989199;28;20021;-83
2022/02/04 08:01:53;;;;;;;5.05;3.20;;;10.70;78.70;;;;;;4992819;28;20475;-80
2022/02/04 08:04:27;;;;;;;5.10;2.70;;;10.80;78.80;;;;;;4995342;28;20033;-82
2022/02/04 08:07:01;;;;;;;4.45;3.17;;;10.70;78.80;;;;;;4995728;28;20385;-80
2022/02/04 08:12:29;;;;;;;4.57;3.40;;;10.70;78.70;;;;;;5001567;28;20450;-85
2022/02/04 08:15:05;;;;;;;4.30;3.05;;;10.80;78.70;;;;;;5006244;28;20104;-85
2022/02/04 08:28:54;;;;;;;4.50;2.80;;;10.80;78.80;;;;;;4946459;28;20528;-85
2022/02/04 08:36:54;;;;;;;3.47;2.58;;;10.80;78.80;;;;;;5005510;28;20048;-83
2022/02/04 08:39:52;;;;;;;4.20;2.75;;;10.80;78.80;;;;;;5023586;28;20029;-84
2022/02/04 08:58:33;;;;;;;3.90;2.75;;;10.80;78.90;;;;;;4998611;28;20069;-83
2022/02/04 09:01:16;;;;;;;4.38;3.35;;;10.80;78.80;;;;;;5014679;28;20046;-84
2022/02/04 09:06:17;;;;;;;4.25;3.15;;;10.80;78.80;;;;;;5004096;28;20501;-84
2022/02/04 09:08:50;;;;;;;4.25;3.33;;;10.80;78.80;;;;;;5003602;28;20526;-85
2022/02/04 09:11:28;;;;;;;4.70;3.40;;;10.90;78.90;;;;;;5000387;28;20088;-84
2022/02/04 09:19:28;;;;;;;4.43;3.13;;;10.90;78.80;;;;;;4998689;28;20053;-84
2022/02/04 09:24:24;;;;;;;4.80;3.42;;;10.90;78.80;;;;;;4994567;28;20493;-85
2022/02/04 09:26:54;;;;;;;4.95;3.25;;;10.90;78.90;;;;;;5000433;28;20029;-88
2022/02/04 09:29:20;;;;;;;4.80;3.40;;;10.90;78.90;;;;;;5002035;28;20071;-87
2022/02/04 09:31:46;;;;;;;4.60;3.30;;;10.90;78.80;;;;;;4995034;28;20025;-86
2022/02/04 09:34:12;;;;;;;4.40;3.20;;;10.90;78.80;;;;;;5006361;28;20021;-85
2022/02/04 09:36:38;;;;;;;5.25;3.75;;;10.90;78.80;;;;;;4987166;28;20038;-87
2022/02/04 09:39:08;;;;;;;4.70;3.30;;;11.00;78.80;;;;;;4978464;28;20099;-86
2022/02/04 09:41:35;;;;;;;4.75;3.65;;;11.00;78.90;;;;;;5009219;28;20071;-85
2022/02/04 09:44:01;;;;;;;4.90;3.55;;;11.00;78.80;;;;;;4982109;28;20041;-85
2022/02/04 09:46:33;;;;;;;5.15;3.58;;;11.00;78.80;;;;;;5005703;28;20067;-85
2022/02/04 09:49:00;;;;;;;5.85;3.85;;;11.00;78.80;;;;;;5001457;28;20026;-85
2022/02/04 09:51:49;;;;;;;4.85;3.60;;;11.00;78.70;;;;;;5004225;28;20029;-87
2022/02/04 10:09:34;;;;;;;4.80;3.53;;;11.00;78.80;;;;;;5002648;28;20025;-85
2022/02/04 10:22:26;;;;;;;4.47;3.33;;;11.10;78.80;;;;;;5005774;28;20056;-87
2022/02/04 10:24:58;;;;;;;4.40;3.08;;;11.20;78.90;;;;;;4989724;28;20091;-85
2022/02/04 10:27:26;;;;;;;4.43;3.50;;;11.10;78.90;;;;;;4998242;28;20026;-85
2022/02/04 10:30:01;;;;;;;5.10;3.65;;;11.20;78.90;;;;;;4997728;28;20030;-85
2022/02/04 10:32:30;;;;;;;4.38;3.20;;;11.20;78.90;;;;;;5008508;28;20030;-88
2022/02/04 10:35:35;;;;;;;4.60;3.40;;;11.20;78.90;;;;;;4989603;28;20137;-86
2022/02/04 10:38:22;;;;;;;4.80;3.25;;;11.20;79.00;;;;;;4996347;28;20033;-85
2022/02/04 10:41:13;;;;;;;4.07;3.20;;;11.30;78.90;;;;;;5013407;28;20037;-86
2022/02/04 10:49:08;;;;;;;4.25;3.08;;;11.30;78.80;;;;;;5004746;28;20482;-89
2022/02/04 10:54:54;;;;;;;3.70;2.80;;;11.30;78.80;;;;;;5042523;28;20034;-85
2022/02/04 11:05:19;;;;;;;4.50;3.10;;;11.40;78.80;;;;;;5024648;28;20038;-88
2022/02/04 11:08:14;;;;;;;4.10;2.85;;;11.40;78.80;;;;;;5014194;28;20034;-85
2022/02/04 11:11:02;;;;;;;3.65;2.53;;;11.40;78.90;;;;;;5021290;28;20496;-85
2022/02/04 11:43:59;;;;;;;3.05;2.40;;;11.60;78.80;;;;;;5020555;28;20034;-87
2022/02/04 11:59:07;;;;;;;2.58;2.15;;;11.70;78.90;;;;;;5008981;28;20044;-85
2022/02/04 12:01:43;;;;;;;3.05;2.22;;;11.70;78.70;;;;;;5021141;28;20022;-85
2022/02/04 12:04:22;;;;;;;3.00;2.47;;;11.70;78.90;;;;;;5010467;28;20113;-86
2022/02/04 12:06:48;;;;;;;3.42;2.67;;;11.70;78.80;;;;;;5012768;28;20034;-85
2022/02/04 12:09:38;;;;;;;4.18;3.00;;;11.70;78.70;;;;;;5004255;28;20203;-86
2022/02/04 12:12:05;;;;;;;3.10;2.30;;;11.70;78.90;;;;;;5020877;28;20042;-85
2022/02/04 12:14:32;;;;;;;3.35;2.58;;;11.80;78.70;;;;;;5026666;28;20040;-84
2022/02/04 12:17:11;;;;;;;3.70;2.63;;;11.80;78.70;;;;;;5015312;28;20052;-85
2022/02/04 12:19:42;;;;;;;3.70;2.65;;;11.80;78.70;;;;;;5011626;28;20116;-85
2022/02/04 12:22:09;;;;;;;2.95;2.38;;;11.90;78.70;;;;;;5019835;28;20040;-85
2022/02/04 12:24:39;;;;;;;2.95;2.42;;;11.90;78.70;;;;;;5017690;28;20108;-84
2022/02/04 12:27:24;;;;;;;3.25;2.58;;;11.90;78.70;;;;;;5003714;28;20088;-85
2022/02/04 12:29:50;;;;;;;3.08;2.47;;;12.00;78.80;;;;;;5014795;28;20087;-86
2022/02/04 12:32:19;;;;;;;3.17;2.40;;;12.00;78.60;;;;;;5011065;28;20026;-84
2022/02/04 12:34:49;;;;;;;3.47;2.75;;;12.00;78.60;;;;;;5023582;28;20116;-85
2022/02/04 12:37:20;;;;;;;3.05;2.50;;;12.00;78.60;;;;;;5013308;28;20036;-86
2022/02/04 12:39:46;;;;;;;2.95;2.35;;;12.00;78.60;;;;;;5017626;28;20017;-85
2022/02/04 12:42:16;;;;;;;3.35;2.40;;;12.00;78.50;;;;;;5017805;28;20098;-82
2022/02/04 12:44:43;;;;;;;3.28;2.55;;;12.10;78.20;;;;;;4984079;28;20455;-90
2022/02/04 12:47:12;;;;;;;3.60;2.47;;;12.10;78.50;;;;;;5038596;28;20426;-84
2022/02/04 12:49:52;;;;;;;3.10;2.40;;;12.10;78.50;;;;;;5026043;28;20425;-85
2022/02/04 13:08:12;;;;;;;3.38;2.53;;;12.20;78.50;;;;;;5014649;28;20037;-83
2022/02/04 13:10:38;;;;;;;3.22;2.47;;;12.20;78.50;;;;;;4989161;28;20042;-82
2022/02/04 13:13:07;;;;;;;2.83;2.30;;;12.20;78.40;;;;;;4993621;28;20037;-82
2022/02/04 13:15:37;;;;;;;3.05;2.28;;;12.20;78.50;;;;;;5021253;28;20044;-84
2022/02/04 13:18:12;;;;;;;3.28;2.45;;;12.20;78.50;;;;;;5018384;28;20524;-84
2022/02/04 13:20:49;;;;;;;2.95;2.28;;;12.20;78.50;;;;;;5047705;28;20029;-82
2022/02/04 13:23:19;;;;;;;3.00;2.10;;;12.20;78.50;;;;;;5018150;28;20037;-85
2022/02/04 13:25:50;;;;;;;3.50;2.53;;;12.20;78.40;;;;;;5009500;28;20048;-86
2022/02/04 13:28:31;;;;;;;2.80;2.20;;;12.20;78.40;;;;;;5022295;28;20025;-85
2022/02/04 13:31:06;;;;;;;2.50;2.20;;;12.20;78.50;;;;;;5021274;28;20025;-83
2022/02/04 13:33:44;;;;;;;3.33;2.40;;;12.30;78.40;;;;;;5047157;28;20087;-85
2022/02/04 13:46:51;;;;;;;3.40;2.38;;;12.30;78.30;;;;;;5026133;28;20025;-82
2022/02/04 13:52:21;;;;;;;3.80;2.55;;;12.30;78.30;;;;;;5003570;28;20052;-83
2022/02/04 13:55:22;;;;;;;3.45;2.40;;;12.30;78.90;;;;;;5012804;28;20478;-87
2022/02/04 13:58:17;;;;;;;3.25;2.40;;;12.30;78.40;;;;;;5014654;28;20025;-84
2022/02/04 14:03:41;;;;;;;3.22;2.28;;;12.30;78.30;;;;;;5031497;28;20029;-83
2022/02/04 14:06:14;;;;;;;3.35;2.38;;;12.30;78.30;;;;;;5020298;28;20052;-82
2022/02/04 14:08:58;;;;;;;3.25;2.55;;;12.30;78.30;;;;;;5011393;28;20090;-82
2022/02/04 14:11:32;;;;;;;3.37;2.33;;;12.20;78.30;;;;;;5019701;28;20068;-84
2022/02/04 14:14:00;;;;;;;3.40;2.20;;;12.30;78.30;;;;;;5011778;28;20124;-86
2022/02/04 14:16:27;;;;;;;2.97;2.42;;;12.30;78.30;;;;;;5013312;28;20067;-89
2022/02/04 14:18:53;;;;;;;3.38;2.55;;;12.30;78.30;;;;;;5006866;28;21226;-83
2022/02/04 14:21:19;;;;;;;3.00;2.30;;;12.20;78.20;;;;;;5011852;28;20069;-89
2022/02/04 14:23:54;;;;;;;3.70;2.60;;;12.20;78.20;;;;;;5012080;28;20033;-86
2022/02/04 14:26:33;;;;;;;3.78;2.80;;;12.20;78.20;;;;;;5009783;28;20052;-83
2022/02/04 14:29:19;;;;;;;3.47;2.40;;;12.20;78.20;;;;;;5027990;28;20041;-83
2022/02/04 14:58:54;;;;;;;4.20;2.85;;;12.10;78.20;;;;;;5031735;28;20055;-87
2022/02/04 15:01:48;;;;;;;3.30;2.50;;;12.10;78.30;;;;;;5007987;28;20492;-86
2022/02/04 15:04:23;;;;;;;3.45;2.55;;;12.10;78.30;;;;;;5046811;28;20037;-87
2022/02/04 15:06:57;;;;;;;2.88;2.10;;;12.10;78.30;;;;;;5004879;28;20543;-89
2022/02/04 15:09:23;;;;;;;3.35;2.05;;;12.00;78.20;;;;;;5007441;28;20034;-83
2022/02/04 15:11:49;;;;;;;2.38;1.75;;;12.00;78.20;;;;;;5029441;28;20033;-86
2022/02/04 15:14:18;;;;;;;2.03;1.73;;;12.00;78.20;;;;;;5009137;28;20032;-87
2022/02/04 15:16:45;;;;;;;1.80;1.67;;;12.00;78.20;;;;;;5028643;28;20049;-88
2022/02/04 15:19:11;;;;;;;2.75;1.80;;;12.00;78.20;;;;;;5012875;28;20041;-83
2022/02/04 15:21:40;;;;;;;1.50;1.40;;;12.00;78.20;;;;;;5006757;28;20189;-83
2022/02/04 15:24:09;;;;;;;1.40;1.30;;;11.90;78.10;;;;;;5016218;28;20111;-83
2022/02/04 15:26:37;;;;;;;1.20;1.10;;;11.90;78.10;;;;;;5013457;28;20032;-83
2022/02/04 15:29:10;;;;;;;1.35;1.20;;;11.90;78.10;;;;;;5015141;28;20495;-83
2022/02/04 15:31:47;;;;;;;1.30;1.20;;;11.90;78.10;;;;;;5016611;28;20033;-83
2022/02/04 15:34:14;;;;;;;1.45;1.20;;;11.90;78.10;;;;;;5035425;28;20045;-85
2022/02/04 15:36:45;;;;;;;1.00;1.00;;;11.80;78.00;;;;;;5017748;28;20029;-87
2022/02/04 15:39:23;;;;;;;0.90;0.90;;;11.80;78.00;;;;;;5013322;28;20025;-85
2022/02/04 15:41:53;;;;;;;1.42;1.13;;;11.80;78.70;;;;;;5018688;28;20033;-86
2022/02/04 15:48:00;;;;;;;1.10;1.00;;;11.70;78.00;;;;;;4981403;28;20044;-84
2022/02/04 15:50:34;;;;;;;0.77;0.77;;;11.70;78.50;;;;;;5012477;28;20025;-83
2022/02/04 15:56:06;;;;;;;0.80;0.80;;;11.60;78.00;;;;;;5029891;28;20053;-85
2022/02/04 16:05:58;;;;;;;0.80;0.80;;;11.50;77.90;;;;;;5022128;28;20040;-82
2022/02/04 16:08:24;;;;;;;0.80;0.80;;;11.40;77.80;;;;;;5003214;28;20083;-81
2022/02/04 16:11:00;;;;;;;1.05;0.98;;;11.40;77.80;;;;;;5004806;28;20030;-79
2022/02/04 16:16:08;;;;;;;1.00;1.00;;;11.30;77.70;;;;;;5015757;28;20049;-79
2022/02/04 16:18:42;;;;;;;0.93;0.93;;;11.30;77.80;;;;;;5025500;28;20131;-79
2022/02/04 16:21:21;;;;;;;0.80;0.80;;;11.30;77.70;;;;;;5019114;28;20071;-79
2022/02/04 16:28:57;;;;;;;1.00;1.00;;;11.10;77.70;;;;;;5014553;28;20113;-80
2022/02/04 16:31:25;;;;;;;0.90;0.90;;;11.10;77.70;;;;;;5026808;28;20427;-80
2022/02/04 16:33:51;;;;;;;1.00;1.00;;;11.10;77.70;;;;;;5005072;28;20076;-84
2022/02/04 16:36:21;;;;;;;0.95;0.95;;;11.00;77.60;;;;;;5019741;28;20434;-82
2022/02/04 16:38:54;;;;;;;1.08;1.08;;;11.00;77.60;;;;;;5016244;28;20116;-82
2022/02/04 16:41:32;;;;;;;1.00;1.00;;;11.00;77.60;;;;;;5025250;28;20038;-80
2022/02/04 16:43:59;;;;;;;1.25;1.20;;;10.90;78.20;;;;;;5024755;28;20029;-80
2022/02/04 16:46:24;;;;;;;1.30;1.20;;;10.90;77.50;;;;;;5016606;28;20033;-78
2022/02/04 16:48:50;;;;;;;1.27;1.17;;;10.80;77.50;;;;;;5017455;28;20029;-78
2022/02/04 16:51:17;;;;;;;1.30;1.20;;;10.80;77.50;;;;;;5008195;28;20038;-79
2022/02/04 16:53:43;;;;;;;1.30;1.23;;;10.80;77.50;;;;;;5007870;28;20043;-81
2022/02/04 16:56:10;;;;;;;1.00;1.00;;;10.70;77.50;;;;;;5005490;28;20029;-80
2022/02/04 16:58:36;;;;;;;1.33;1.10;;;10.70;77.50;;;;;;5030611;28;20082;-80
2022/02/04 17:01:03;;;;;;;1.30;1.20;;;10.70;77.50;;;;;;4980607;28;20029;-80
2022/02/04 17:03:29;;;;;;;1.20;1.10;;;10.70;77.50;;;;;;5001758;28;20504;-79
2022/02/04 17:05:59;;;;;;;1.50;1.17;;;10.60;77.50;;;;;;5007811;28;20117;-80
2022/02/04 17:08:33;;;;;;;1.30;1.20;;;10.60;77.50;;;;;;4983273;28;20037;-80
2022/02/04 17:11:08;;;;;;;1.33;1.17;;;10.60;77.50;;;;;;5012371;28;20102;-79
2022/02/04 17:13:34;;;;;;;1.00;1.00;;;10.50;77.50;;;;;;5024466;28;20029;-82
2022/02/04 17:16:00;;;;;;;1.13;1.02;;;10.50;77.50;;;;;;5017332;28;20728;-81
2022/02/04 17:18:26;;;;;;;1.23;1.08;;;10.50;77.50;;;;;;4997363;28;20075;-80
2022/02/04 17:20:52;;;;;;;1.10;1.10;;;10.40;77.50;;;;;;4987147;28;20034;-82
2022/02/04 17:24:03;;;;;;;1.20;1.10;;;10.40;77.50;;;;;;4981140;28;20517;-81
2022/02/04 17:26:05;;;;;;;1.00;1.00;;;10.40;77.60;;;;;;5007033;28;20116;-80
2022/02/04 17:28:31;;;;;;;1.20;1.20;;;10.30;77.50;;;;;;5013848;28;20167;-81
2022/02/04 17:30:58;;;;;;;1.30;1.20;;;10.30;77.50;;;;;;4998280;28;20037;-80
2022/02/04 17:33:25;;;;;;;1.30;1.20;;;10.30;77.60;;;;;;4995612;28;20048;-80
2022/02/04 17:35:53;;;;;;;1.23;1.15;;;10.20;77.60;;;;;;5016206;28;20086;-83
2022/02/04 17:38:19;;;;;;;1.00;1.00;;;10.20;77.60;;;;;;5014794;28;20028;-80
2022/02/04 17:40:45;;;;;;;1.35;1.20;;;10.20;77.60;;;;;;5010763;28;20024;-81
2022/02/04 17:43:12;;;;;;;1.25;1.20;;;10.20;77.70;;;;;;5012724;28;20122;-81
2022/02/04 17:45:38;;;;;;;1.40;1.25;;;10.10;77.60;;;;;;5014000;28;20456;-85
2022/02/04 17:48:08;;;;;;;1.20;1.10;;;10.10;77.70;;;;;;5011462;28;20022;-85
2022/02/04 17:50:47;;;;;;;1.50;1.40;;;10.10;77.60;;;;;;5021113;28;20033;-80
2022/02/04 17:53:50;;;;;;;1.63;1.30;;;10.10;77.70;;;;;;5017985;28;20037;-81
2022/02/04 18:02:03;;;;;;;1.13;1.03;;;9.90;77.60;;;;;;5035985;28;20182;-81
2022/02/04 18:07:21;;;;;;;1.35;1.23;;;9.80;77.70;;;;;;5035101;28;20727;-81
2022/02/04 18:09:47;;;;;;;1.17;1.08;;;9.80;77.70;;;;;;5022492;28;20072;-83
2022/02/04 18:12:15;;;;;;;1.20;1.10;;;9.80;77.70;;;;;;5013254;28;20053;-80
2022/02/04 18:14:44;;;;;;;1.40;1.10;;;9.70;77.70;;;;;;5024755;28;20450;-81
2022/02/04 18:17:10;;;;;;;1.38;1.10;;;9.70;77.80;;;;;;5016432;28;20048;-80
2022/02/04 18:19:36;;;;;;;1.42;1.30;;;9.70;77.80;;;;;;5018777;28;20496;-81
2022/02/04 18:22:01;;;;;;;2.50;1.15;;;9.60;78.40;;;;;;5043650;28;20037;-81
2022/02/04 18:24:28;;;;;;;1.25;1.02;;;9.60;77.80;;;;;;5023870;28;20021;-84
2022/02/04 18:26:54;;;;;;;2.45;1.55;;;9.60;77.80;;;;;;5041689;28;20106;-81
2022/02/04 18:29:20;;;;;;;1.23;1.13;;;9.60;77.80;;;;;;5015058;28;20604;-80
2022/02/04 18:31:46;;;;;;;1.42;1.20;;;9.50;77.80;;;;;;5019947;28;20033;-80
2022/02/04 18:34:17;;;;;;;1.95;1.20;;;9.50;77.70;;;;;;5021098;28;20116;-79
2022/02/04 18:36:43;;;;;;;1.80;1.13;;;9.50;77.80;;;;;;5017312;28;20025;-80
2022/02/04 18:39:23;;;;;;;1.67;1.13;;;9.50;77.80;;;;;;5039493;28;20026;-80
2022/02/04 18:44:15;;;;;;;1.40;1.30;;;9.40;77.80;;;;;;5023278;28;20033;-80
2022/02/04 18:54:29;;;;;;;1.65;1.20;;;9.30;77.80;;;;;;5013695;28;20117;-82
2022/02/04 18:59:31;;;;;;;2.20;1.40;;;9.30;77.90;;;;;;5029111;28;20091;-81
2022/02/04 19:01:58;;;;;;;1.40;1.30;;;9.20;77.90;;;;;;5023988;28;20038;-80
2022/02/04 19:04:32;;;;;;;1.27;1.15;;;9.20;78.50;;;;;;5008676;28;20025;-79
2022/02/04 19:07:07;;;;;;;3.08;1.35;;;9.20;77.90;;;;;;5016687;28;20048;-81
2022/02/04 19:09:35;;;;;;;1.77;1.10;;;9.20;77.90;;;;;;4987416;28;20078;-80
2022/02/04 19:12:09;;;;;;;1.23;1.10;;;9.10;77.90;;;;;;5044587;28;20017;-79
2022/02/04 19:17:26;;;;;;;1.40;1.30;;;9.10;77.90;;;;;;5011647;28;20060;-79
2022/02/04 19:22:33;;;;;;;1.70;1.30;;;9.10;78.00;;;;;;5031408;28;20033;-78
2022/02/04 19:25:03;;;;;;;1.92;1.38;;;9.00;78.00;;;;;;5020346;28;20029;-80
2022/02/04 19:27:29;;;;;;;1.83;1.40;;;9.00;78.00;;;;;;5021694;28;20036;-80
2022/02/04 19:29:55;;;;;;;1.30;1.20;;;9.00;78.00;;;;;;4999575;28;20064;-80
2022/02/04 19:32:22;;;;;;;2.60;1.42;;;9.00;78.10;;;;;;5018200;28;20029;-84
2022/02/04 19:34:48;;;;;;;2.58;1.48;;;8.90;78.10;;;;;;5040561;28;20111;-80
2022/02/04 19:37:13;;;;;;;2.72;1.55;;;8.90;78.10;;;;;;5018362;28;20120;-80
2022/02/04 19:39:42;;;;;;;2.88;1.40;;;8.90;78.10;;;;;;5014370;28;20030;-80
2022/02/04 19:42:21;;;;;;;3.45;1.67;;;8.90;78.10;;;;;;5011052;28;20102;-80
2022/02/04 19:44:54;;;;;;;2.22;1.60;;;8.90;78.20;;;;;;5013209;28;20355;-80
2022/02/04 19:47:28;;;;;;;2.53;1.70;;;8.90;78.20;;;;;;5015252;28;20037;-81
2022/02/04 19:50:47;;;;;;;2.83;1.85;;;8.90;78.20;;;;;;5007358;28;20026;-80
2022/02/04 20:25:19;;;;;;;2.90;2.07;;;8.60;78.30;;;;;;4965930;28;20034;-80
2022/02/04 20:27:45;;;;;;;3.67;2.10;;;8.60;78.30;;;;;;4999940;28;20507;-79
2022/02/04 20:30:13;;;;;;;3.10;1.98;;;8.60;78.40;;;;;;4990084;28;20033;-80
2022/02/04 20:32:39;;;;;;;2.25;1.73;;;8.50;78.40;;;;;;5014058;28;20036;-85
2022/02/04 20:35:05;;;;;;;3.17;1.90;;;8.60;78.50;;;;;;5025588;28;20620;-80